| Date | Time | Temp. (oF) | Dew Point (oF) | Rel. Hum. (%) | Press. (in.) | Wind Dir. | Wind Speed (mph) | Hourly Rainfall (in.) |
|
|---|---|---|---|---|---|---|---|---|---|
| 1 | 04/03 | 00:00 | 53 | 46 | 80 | 30.14 | SE | 1 | 0.00 |
| 2 | 04/02 | 23:00 | 55 | 47 | 76 | 30.15 | SE | 4 | 0.00 |
| 3 | 04/02 | 22:00 | 57 | 47 | 71 | 30.14 | SE | 4 | 0.00 |
| 4 | 04/02 | 21:00 | 60 | 48 | 67 | 30.12 | ESE | 4 | 0.00 |
| 5 | 04/02 | 20:00 | 63 | 49 | 62 | 30.11 | ESE | 7 | 0.00 |
| 6 | 04/02 | 19:00 | 68 | 52 | 57 | 30.10 | SE | 5 | 0.00 |
| 7 | 04/02 | 18:00 | 74 | 49 | 42 | 30.08 | SSW | 4 | 0.00 |
| 8 | 04/02 | 17:00 | 74 | 49 | 42 | 30.08 | SW | 8 | 0.00 |
| 9 | 04/02 | 16:00 | 74 | 49 | 42 | 30.09 | SW | 3 | 0.00 |
| 10 | 04/02 | 15:00 | 73 | 47 | 41 | 30.11 | S | 4 | 0.00 |
| 11 | 04/02 | 14:00 | 72 | 48 | 43 | 30.12 | S | 9 | 0.00 |
| 12 | 04/02 | 13:00 | 71 | 50 | 49 | 30.14 | SE | 4 | 0.00 |
| 13 | 04/02 | 12:00 | 68 | 50 | 53 | 30.15 | S | 4 | 0.00 |
| 14 | 04/02 | 11:00 | 63 | 53 | 70 | 30.16 | SSW | 5 | 0.00 |
| 15 | 04/02 | 10:00 | 58 | 52 | 81 | 30.15 | E | 2 | 0.00 |
| 16 | 04/02 | 09:00 | 53 | 49 | 88 | 30.13 | NE | 2 | 0.00 |
| 17 | 04/02 | 08:00 | 49 | 48 | 97 | 30.13 | SE | 0 | 0.00 |
| 18 | 04/02 | 07:00 | 47 | 45 | 96 | 30.11 | SE | 3 | 0.00 |
| 19 | 04/02 | 06:00 | 47 | 45 | 94 | 30.10 | E | 0 | 0.00 |
| 20 | 04/02 | 05:00 | 48 | 45 | 92 | 30.08 | ESE | 0 | 0.00 |
| 21 | 04/02 | 04:00 | 48 | 44 | 89 | 30.07 | ENE | 0 | 0.00 |
| 22 | 04/02 | 03:00 | 48 | 42 | 81 | 30.06 | N | 0 | 0.00 |
| 23 | 04/02 | 02:00 | 50 | 43 | 77 | 30.06 | ENE | 0 | 0.00 |
| 24 | 04/02 | 01:00 | 53 | 43 | 70 | 30.06 | ENE | 0 | 0.00 |